createdAt,value
2023-03-05T00:04:57.307Z,40
2023-03-05T00:10:13.700Z,33
2023-03-05T00:15:30.146Z,32
2023-03-05T00:20:46.524Z,29
2023-03-05T00:26:03.019Z,35
2023-03-05T00:31:19.700Z,42
2023-03-05T00:36:36.021Z,43
2023-03-05T00:41:52.461Z,44
2023-03-05T00:47:08.920Z,38
2023-03-05T00:52:25.289Z,36
2023-03-05T00:57:41.737Z,29
2023-03-05T01:02:58.137Z,37
2023-03-05T01:08:14.529Z,31
2023-03-05T01:13:30.963Z,31
2023-03-05T01:18:47.395Z,38
2023-03-05T01:24:33.370Z,36
2023-03-05T01:29:49.814Z,28
2023-03-05T01:35:06.240Z,33
2023-03-05T01:40:22.634Z,38
2023-03-05T01:45:39.142Z,32
2023-03-05T01:50:55.463Z,29
2023-03-05T01:56:11.881Z,31
2023-03-05T02:01:28.332Z,23
2023-03-05T02:06:44.738Z,38
2023-03-05T02:12:00.932Z,36
2023-03-05T02:17:17.415Z,33
2023-03-05T02:22:33.804Z,20
2023-03-05T02:27:50.191Z,25
2023-03-05T02:33:06.610Z,26
2023-03-05T02:38:23.039Z,22
2023-03-05T02:43:39.408Z,21
2023-03-05T02:48:55.860Z,28
2023-03-05T02:54:12.264Z,27
2023-03-05T02:59:28.683Z,26
2023-03-05T03:04:45.113Z,31
2023-03-05T03:10:01.472Z,24
2023-03-05T03:15:17.924Z,32
2023-03-05T03:20:34.338Z,30
2023-03-05T03:25:50.731Z,20
2023-03-05T03:31:07.226Z,26
2023-03-05T03:36:23.550Z,17
2023-03-05T03:41:39.940Z,17
2023-03-05T03:46:56.448Z,11
2023-03-05T03:52:12.811Z,13
2023-03-05T03:57:29.228Z,16
2023-03-05T04:02:45.717Z,15
2023-03-05T04:08:02.026Z,20
2023-03-05T04:13:18.444Z,15
2023-03-05T04:18:34.860Z,17
2023-03-05T04:23:51.234Z,16
2023-03-05T04:29:07.658Z,14
2023-03-05T04:34:24.153Z,14
2023-03-05T04:39:40.531Z,14
2023-03-05T04:44:56.975Z,13
2023-03-05T04:50:13.397Z,17
2023-03-05T04:55:29.766Z,16
2023-03-05T05:00:46.261Z,27
2023-03-05T05:06:02.658Z,23
2023-03-05T05:11:19.058Z,23
2023-03-05T05:16:35.548Z,16
2023-03-05T05:21:51.852Z,29
2023-03-05T05:27:08.260Z,25
2023-03-05T05:32:24.809Z,26
2023-03-05T05:37:41.264Z,28
2023-03-05T05:42:57.516Z,20
2023-03-05T05:48:13.992Z,25
2023-03-05T05:53:30.367Z,24
2023-03-05T05:58:46.792Z,28
2023-03-05T06:04:03.221Z,27
2023-03-05T06:09:20.070Z,32
2023-03-05T06:14:36.521Z,30
2023-03-05T06:19:52.894Z,26
2023-03-05T06:25:09.306Z,29
2023-03-05T06:30:26.329Z,29
2023-03-05T06:35:42.459Z,29
2023-03-05T06:40:58.810Z,29
2023-03-05T06:46:15.305Z,36
2023-03-05T06:51:31.393Z,40
2023-03-05T06:56:47.811Z,38
2023-03-05T07:02:04.303Z,59
2023-03-05T07:07:21.196Z,64
2023-03-05T07:12:37.691Z,51
2023-03-05T07:17:54.668Z,34
2023-03-05T07:23:11.039Z,25
2023-03-05T07:28:27.466Z,26
2023-03-05T07:33:44.434Z,34
2023-03-05T07:39:01.379Z,32
2023-03-05T07:44:17.817Z,26
2023-03-05T07:49:34.172Z,23
2023-03-05T07:54:50.575Z,27
2023-03-05T08:00:06.980Z,22
2023-03-05T08:05:23.848Z,29
2023-03-05T08:10:40.218Z,35
2023-03-05T08:15:57.285Z,29
2023-03-05T08:21:13.294Z,26
2023-03-05T08:26:29.695Z,25
2023-03-05T08:31:46.087Z,27
2023-03-05T08:37:02.447Z,26
2023-03-05T08:42:18.553Z,23
2023-03-05T08:47:34.977Z,23
2023-03-05T08:52:51.290Z,24
2023-03-05T08:58:07.664Z,23
2023-03-05T09:03:24.053Z,26
2023-03-05T09:08:41.519Z,33
2023-03-05T09:13:57.960Z,25
2023-03-05T09:19:14.114Z,38
2023-03-05T09:24:30.449Z,26
2023-03-05T09:29:46.878Z,29
2023-03-05T09:35:03.384Z,24
2023-03-05T09:40:20.225Z,24
2023-03-05T09:45:36.757Z,24
2023-03-05T09:50:53.034Z,28
2023-03-05T09:56:09.557Z,23
2023-03-05T10:01:25.690Z,30
2023-03-05T10:06:42.288Z,30
2023-03-05T10:11:58.638Z,24
2023-03-05T10:17:15.039Z,28
2023-03-05T10:22:31.376Z,26
2023-03-05T10:27:47.736Z,28
2023-03-05T10:33:04.093Z,28
2023-03-05T10:38:20.516Z,24
2023-03-05T10:43:36.856Z,24
2023-03-05T10:48:53.251Z,30
2023-03-05T10:54:09.652Z,26
2023-03-05T10:59:26.012Z,27
2023-03-05T11:04:42.362Z,26
2023-03-05T11:09:59.248Z,26
2023-03-05T11:15:16.013Z,26
2023-03-05T11:20:32.343Z,25
2023-03-05T11:25:48.757Z,28
2023-03-05T11:31:05.207Z,24
2023-03-05T11:36:21.222Z,28
2023-03-05T11:41:37.612Z,20
2023-03-05T11:46:54.180Z,26
2023-03-05T11:52:10.318Z,28
2023-03-05T11:57:26.746Z,24
2023-03-05T12:02:43.204Z,21
2023-03-05T12:08:00.148Z,24
2023-03-05T12:13:16.519Z,20
2023-03-05T12:18:32.893Z,20
2023-03-05T12:23:49.306Z,20
2023-03-05T12:29:05.680Z,22
2023-03-05T12:34:22.048Z,20
2023-03-05T12:39:38.379Z,17
2023-03-05T12:44:54.752Z,17
2023-03-05T12:50:11.070Z,17
2023-03-05T12:55:27.452Z,32
2023-03-05T13:00:43.863Z,19
2023-03-05T13:06:00.147Z,17
2023-03-05T13:11:16.496Z,17
2023-03-05T13:16:32.914Z,18
2023-03-05T13:21:49.210Z,15
2023-03-05T13:27:05.598Z,20
2023-03-05T13:32:22.546Z,21
2023-03-05T13:37:38.842Z,16
2023-03-05T13:42:55.214Z,14
2023-03-05T13:48:11.774Z,19
2023-03-05T13:53:27.889Z,20
2023-03-05T13:58:44.275Z,15
2023-03-05T14:04:00.692Z,17
2023-03-05T14:09:17.266Z,16
2023-03-05T14:14:33.371Z,22
2023-03-05T14:19:49.717Z,20
2023-03-05T14:25:06.068Z,19
2023-03-05T14:30:22.433Z,18
2023-03-05T14:35:38.869Z,14
2023-03-05T14:40:55.137Z,13
2023-03-05T14:46:13.487Z,11
2023-03-05T14:51:27.867Z,14
2023-03-05T14:56:44.237Z,11
2023-03-05T15:02:00.601Z,14
2023-03-05T15:07:16.953Z,20
2023-03-05T15:12:32.998Z,24
2023-03-05T15:17:49.159Z,24
2023-03-05T15:23:05.468Z,24
2023-03-05T15:28:21.860Z,27
2023-03-05T15:33:38.295Z,27
2023-03-05T15:38:54.651Z,25
2023-03-05T15:44:11.757Z,23
2023-03-05T15:49:28.946Z,32
2023-03-05T15:54:45.031Z,30
2023-03-05T16:00:01.414Z,29
2023-03-05T16:05:17.845Z,34
2023-03-05T16:10:34.192Z,33
2023-03-05T16:15:50.606Z,40
2023-03-05T16:21:06.862Z,39
2023-03-05T16:26:23.801Z,42
2023-03-05T16:31:40.299Z,30
2023-03-05T16:36:56.683Z,33
2023-03-05T16:42:13.021Z,32
2023-03-05T16:47:29.447Z,33
2023-03-05T16:52:45.832Z,36
2023-03-05T16:58:01.949Z,37
2023-03-05T17:03:18.992Z,37
2023-03-05T17:08:35.342Z,44
2023-03-05T17:13:51.694Z,47
2023-03-05T17:19:08.129Z,44
2023-03-05T17:24:24.558Z,50
2023-03-05T17:29:41.032Z,57
2023-03-05T17:34:57.542Z,48
2023-03-05T17:40:14.544Z,55
2023-03-05T17:45:31.513Z,52
2023-03-05T17:50:48.625Z,74
2023-03-05T17:56:05.582Z,59
2023-03-05T18:01:21.630Z,71
2023-03-05T18:06:37.781Z,47
2023-03-05T18:11:54.163Z,49
2023-03-05T18:17:10.635Z,76
2023-03-05T18:22:27.436Z,71
2023-03-05T18:27:43.623Z,74
2023-03-05T18:33:00.601Z,74
2023-03-05T18:38:17.682Z,78
2023-03-05T18:43:34.113Z,82
2023-03-05T18:48:50.647Z,78
2023-03-05T18:54:07.111Z,88
2023-03-05T18:59:23.557Z,84
2023-03-05T19:04:41.275Z,85
2023-03-05T19:09:59.639Z,77
2023-03-05T19:15:15.091Z,80
2023-03-05T19:20:32.158Z,75
2023-03-05T19:25:49.195Z,81
2023-03-05T19:31:05.504Z,75
2023-03-05T19:36:22.103Z,83
2023-03-05T19:41:39.114Z,79
2023-03-05T19:46:56.339Z,82
2023-03-05T19:52:12.571Z,79
2023-03-05T19:57:29.126Z,78
2023-03-05T20:02:45.713Z,75
2023-03-05T20:08:02.219Z,78
2023-03-05T20:13:19.171Z,73
2023-03-05T20:18:35.630Z,76
2023-03-05T20:23:52.445Z,73
2023-03-05T20:29:08.896Z,67
2023-03-05T20:34:25.354Z,76
2023-03-05T20:39:42.149Z,73
2023-03-05T20:44:59.559Z,64
2023-03-05T20:50:16.995Z,74
2023-03-05T20:55:33.787Z,80
2023-03-05T21:00:50.328Z,76
2023-03-05T21:06:07.624Z,64
2023-03-05T21:11:23.812Z,69
2023-03-05T21:16:40.929Z,65
2023-03-05T21:21:57.824Z,59
2023-03-05T21:27:14.308Z,46
2023-03-05T21:32:31.165Z,62
2023-03-05T21:37:47.588Z,72
2023-03-05T21:43:04.404Z,60
2023-03-05T21:48:20.843Z,57
2023-03-05T21:53:37.220Z,50
2023-03-05T21:58:54.265Z,61
2023-03-05T22:04:11.147Z,51
2023-03-05T22:09:27.110Z,45
2023-03-05T22:14:43.726Z,53
2023-03-05T22:20:00.169Z,43
2023-03-05T22:25:16.552Z,43
2023-03-05T22:30:33.347Z,38
2023-03-05T22:35:50.683Z,41
2023-03-05T22:41:07.100Z,54
2023-03-05T22:46:24.180Z,45
2023-03-05T22:51:41.049Z,56
2023-03-05T22:56:57.485Z,64
2023-03-05T23:02:13.896Z,51
2023-03-05T23:07:30.346Z,32
2023-03-05T23:12:47.306Z,36
2023-03-05T23:18:03.692Z,31
2023-03-05T23:23:20.111Z,31
2023-03-05T23:28:36.265Z,32
2023-03-05T23:33:52.633Z,28
2023-03-05T23:39:09.094Z,31
2023-03-05T23:44:25.487Z,34
2023-03-05T23:49:42.456Z,36
2023-03-05T23:54:58.875Z,47
